Time;durP1;ratioP1;P1;durP2;ratioP2;P2;SDS_P1;SDS_P2;PMS_P1;PMS_P2;Temp;Humidity;BMP_temperature;BMP_pressure;BME280_temperature;BME280_humidity;BME280_pressure;Samples;Min_cycle;Max_cycle;Signal;HPM_P1;HPM_P2
2022/06/11 00:01:24;;;;;;;13.38;7.85;;;;;;;18.96;80.28;98842.22;4925176;29;20030;-93
2022/06/11 00:03:51;;;;;;;13.98;7.40;;;;;;;19.01;79.89;98849.44;4925072;29;20118;-95
2022/06/11 00:06:17;;;;;;;10.43;7.55;;;;;;;18.93;80.82;98834.75;4924655;29;20046;-94
2022/06/11 00:08:43;;;;;;;10.93;8.10;;;;;;;19.00;80.13;98850.56;4955717;28;20026;-92
2022/06/11 00:11:10;;;;;;;10.63;7.85;;;;;;;18.96;80.49;98822.34;4940356;28;20049;-91
2022/06/11 00:13:36;;;;;;;11.02;7.57;;;;;;;18.94;80.16;98810.97;4955636;28;20027;-93
2022/06/11 00:16:01;;;;;;;9.30;7.78;;;;;;;19.04;79.60;98823.41;4956316;28;20130;-93
2022/06/11 00:18:28;;;;;;;11.45;7.63;;;;;;;19.04;79.10;98821.44;4956203;28;20545;-92
2022/06/11 00:20:53;;;;;;;11.90;7.38;;;;;;;19.10;78.88;98822.03;4955585;28;20019;-94
2022/06/11 00:23:19;;;;;;;9.40;7.80;;;;;;;18.95;79.77;98813.38;4939709;29;20038;-93
2022/06/11 00:25:44;;;;;;;11.45;8.60;;;;;;;18.88;80.90;98804.94;4923082;29;20038;-92
2022/06/11 00:28:10;;;;;;;12.55;8.70;;;;;;;18.80;81.16;98815.94;4923279;29;20031;-93
2022/06/11 00:30:35;;;;;;;12.85;8.65;;;;;;;18.77;80.83;98811.94;4923478;29;20038;-93
2022/06/11 00:33:01;;;;;;;13.27;8.85;;;;;;;18.73;81.75;98817.25;4923447;29;20039;-92
2022/06/11 00:35:27;;;;;;;13.40;9.38;;;;;;;18.67;81.70;98806.91;4955275;29;20402;-92
2022/06/11 00:37:52;;;;;;;11.73;9.55;;;;;;;18.66;81.92;98799.88;4923636;29;20090;-93
2022/06/11 00:40:20;;;;;;;14.85;10.00;;;;;;;18.51;81.93;98780.28;4939664;29;20023;-93
2022/06/11 00:42:46;;;;;;;11.68;9.98;;;;;;;18.67;82.46;98817.81;4923211;29;20044;-92
2022/06/11 00:45:24;;;;;;;10.80;8.98;;;;;;;18.55;82.87;98804.91;4939019;29;20101;-92
2022/06/11 00:48:17;;;;;;;11.00;8.45;;;;;;;18.56;82.00;98796.41;4955427;28;20023;-92
2022/06/11 00:50:51;;;;;;;11.68;8.70;;;;;;;18.62;82.04;98790.75;4941740;29;20039;-93
2022/06/11 00:53:37;;;;;;;12.32;8.88;;;;;;;18.72;82.01;98815.66;4924048;29;20023;-93
2022/06/11 00:56:04;;;;;;;9.63;7.93;;;;;;;18.59;81.84;98805.84;4939662;29;20034;-93
2022/06/11 00:58:33;;;;;;;12.35;8.82;;;;;;;18.67;81.81;98807.69;4923019;29;20029;-93
2022/06/11 01:00:59;;;;;;;11.43;8.35;;;;;;;18.60;82.23;98810.19;4954723;28;20139;-94
2022/06/11 01:03:33;;;;;;;9.57;8.10;;;;;;;18.61;81.61;98814.47;4922865;29;20027;-93
2022/06/11 01:06:12;;;;;;;11.38;8.30;;;;;;;18.73;81.37;98825.44;4923945;29;20058;-93
2022/06/11 01:09:14;;;;;;;11.48;8.20;;;;;;;18.58;81.81;98813.22;4940017;29;20058;-92
2022/06/11 01:11:45;;;;;;;8.23;7.35;;;;;;;18.69;81.00;98824.50;4960097;28;20039;-93
2022/06/11 01:14:15;;;;;;;11.68;7.97;;;;;;;18.71;81.77;98830.44;4954854;29;20031;-93
2022/06/11 01:17:02;;;;;;;10.73;7.93;;;;;;;18.67;81.58;98834.97;4954471;29;20035;-92
2022/06/11 01:19:37;;;;;;;10.07;8.15;;;;;;;18.60;82.21;98844.84;4954346;29;20034;-93
2022/06/11 01:22:26;;;;;;;13.63;8.15;;;;;;;18.45;82.11;98838.88;4954315;29;20054;-91
2022/06/11 01:25:29;;;;;;;10.25;7.72;;;;;;;18.57;82.71;98855.28;4939058;29;20034;-94
2022/06/11 01:28:19;;;;;;;11.13;8.02;;;;;;;18.60;82.62;98864.72;4967575;28;20102;-92
2022/06/11 01:30:45;;;;;;;11.70;7.30;;;;;;;18.71;82.24;98860.44;4954687;29;20035;-92
2022/06/11 01:33:22;;;;;;;10.70;8.35;;;;;;;18.62;82.06;98846.09;4954012;29;20524;-92
2022/06/11 01:36:01;;;;;;;7.85;6.97;;;;;;;18.58;81.57;98845.16;4955031;28;20055;-93
2022/06/11 01:38:42;;;;;;;9.25;7.28;;;;;;;18.63;80.43;98833.25;4938918;29;20054;-92
2022/06/11 01:41:26;;;;;;;7.55;6.68;;;;;;;18.66;80.40;98847.00;4939652;29;20027;-92
2022/06/11 01:43:54;;;;;;;8.43;6.47;;;;;;;18.69;80.54;98835.41;4954016;29;20031;-92
2022/06/11 01:46:23;;;;;;;10.20;6.75;;;;;;;18.64;80.03;98827.47;4922304;29;20031;-93
2022/06/11 01:48:58;;;;;;;8.48;6.45;;;;;;;18.74;80.12;98842.63;4938746;29;20019;-93
2022/06/11 01:51:30;;;;;;;7.90;6.72;;;;;;;18.74;79.99;98823.53;4939262;29;20524;-93
2022/06/11 01:54:29;;;;;;;9.38;7.07;;;;;;;18.83;80.50;98845.28;4954063;29;20473;-93
2022/06/11 01:57:22;;;;;;;10.70;7.32;;;;;;;18.69;80.36;98831.91;4924646;29;20027;-94
2022/06/11 02:00:09;;;;;;;11.13;7.70;;;;;;;18.69;81.06;98845.53;4940517;29;20019;-93
2022/06/11 02:03:22;;;;;;;11.77;8.98;;;;;;;18.57;81.98;98841.66;4954352;29;20035;-93
2022/06/11 02:05:55;;;;;;;9.00;7.57;;;;;;;18.60;81.48;98845.63;4969348;28;20067;-92
2022/06/11 02:08:33;;;;;;;15.45;8.10;;;;;;;18.44;81.38;98825.56;4937372;29;20038;-93
2022/06/11 02:11:18;;;;;;;10.80;7.80;;;;;;;18.64;81.51;98856.66;4937783;29;20043;-92
2022/06/11 02:14:05;;;;;;;9.48;7.60;;;;;;;18.67;80.78;98859.50;4957248;28;20171;-92
2022/06/11 02:16:51;;;;;;;10.55;8.30;;;;;;;18.81;81.15;98866.66;4926982;29;20394;-93
2022/06/11 02:19:44;;;;;;;10.80;8.38;;;;;;;18.66;81.50;98881.69;4957275;29;20118;-92
2022/06/11 02:22:46;;;;;;;11.75;8.48;;;;;;;18.57;81.36;98887.19;4955153;29;20035;-92
2022/06/11 02:25:26;;;;;;;13.25;7.82;;;;;;;18.50;81.48;98881.47;4973630;28;20027;-93
2022/06/11 02:27:54;;;;;;;12.75;8.25;;;;;;;18.33;81.68;98866.84;4926774;29;20118;-93
2022/06/11 02:30:21;;;;;;;9.48;7.05;;;;;;;18.49;80.22;98868.97;4957858;28;20468;-93
2022/06/11 02:32:47;;;;;;;7.88;7.07;;;;;;;18.51;79.62;98859.34;4926786;29;20039;-92
2022/06/11 02:35:14;;;;;;;10.77;7.10;;;;;;;18.51;79.89;98848.44;4925689;29;20077;-91
2022/06/11 02:37:42;;;;;;;11.73;7.28;;;;;;;18.63;80.00;98855.84;4926609;29;20034;-93
2022/06/11 02:40:14;;;;;;;16.45;9.00;;;;;;;18.63;80.74;98855.06;4926139;29;20094;-93
2022/06/11 02:42:40;;;;;;;13.05;8.77;;;;;;;18.46;81.38;98839.66;4925734;29;20027;-91
2022/06/11 02:45:06;;;;;;;13.88;8.15;;;;;;;18.49;81.69;98849.88;4925308;29;20053;-92
2022/06/11 02:47:31;;;;;;;11.60;9.18;;;;;;;18.43;81.65;98846.56;4956947;28;20508;-93
2022/06/11 02:49:57;;;;;;;11.65;8.32;;;;;;;18.39;81.16;98840.19;4925224;29;20024;-93
2022/06/11 02:52:23;;;;;;;10.45;7.28;;;;;;;18.46;80.73;98856.00;4925185;29;20083;-93
2022/06/11 02:54:49;;;;;;;13.30;7.45;;;;;;;18.55;80.50;98862.16;4925450;29;20142;-92
2022/06/11 02:57:17;;;;;;;11.20;7.55;;;;;;;18.46;81.17;98856.81;4925433;29;20424;-93
2022/06/11 02:59:43;;;;;;;10.00;7.78;;;;;;;18.45;80.77;98844.31;4925747;29;20517;-91
2022/06/11 03:02:08;;;;;;;11.25;7.63;;;;;;;18.53;81.70;98848.06;4925499;29;20054;-92
2022/06/11 03:04:34;;;;;;;10.75;7.30;;;;;;;18.33;81.12;98831.41;4925277;29;20030;-92
2022/06/11 03:07:00;;;;;;;11.20;7.55;;;;;;;18.44;80.99;98859.06;4924904;29;20064;-92
2022/06/11 03:09:27;;;;;;;12.63;7.35;;;;;;;18.51;80.97;98842.16;4957440;28;20023;-91
2022/06/11 03:11:53;;;;;;;14.32;8.40;;;;;;;18.44;80.31;98825.56;4957078;28;20164;-93
2022/06/11 03:14:18;;;;;;;10.52;7.28;;;;;;;18.54;79.85;98831.38;4925197;29;20571;-92
2022/06/11 03:16:46;;;;;;;13.27;8.52;;;;;;;18.57;80.52;98835.38;4956645;29;20027;-91
2022/06/11 03:19:11;;;;;;;10.50;7.07;;;;;;;18.50;80.09;98821.50;4925375;29;20027;-92
2022/06/11 03:21:37;;;;;;;17.73;9.07;;;;;;;18.60;80.47;98831.19;4924402;29;20114;-92
2022/06/11 03:24:03;;;;;;;14.73;7.75;;;;;;;18.56;80.13;98822.88;4924506;29;20037;-91
2022/06/11 03:26:31;;;;;;;11.32;8.40;;;;;;;18.40;81.99;98817.25;4924316;29;20058;-92
2022/06/11 03:28:56;;;;;;;10.90;8.63;;;;;;;18.33;81.52;98825.97;4924456;29;20027;-91
2022/06/11 03:31:22;;;;;;;11.70;8.65;;;;;;;18.37;82.12;98834.28;4955880;28;20031;-91
2022/06/11 03:33:48;;;;;;;13.73;9.32;;;;;;;18.31;82.79;98830.16;4940356;29;20030;-91
2022/06/11 03:36:14;;;;;;;13.45;9.40;;;;;;;18.38;82.43;98841.31;4924082;29;20051;-92
2022/06/11 03:38:40;;;;;;;12.23;8.95;;;;;;;18.40;82.64;98854.63;4939876;29;20572;-91
2022/06/11 03:41:06;;;;;;;11.60;8.50;;;;;;;18.40;82.15;98841.00;4940284;29;20474;-91
2022/06/11 03:43:32;;;;;;;11.68;8.43;;;;;;;18.37;82.52;98839.72;4940316;29;20054;-91
2022/06/11 03:46:00;;;;;;;12.98;9.23;;;;;;;18.29;82.32;98838.66;4940441;29;20366;-91
2022/06/11 03:48:28;;;;;;;11.82;8.82;;;;;;;18.27;82.30;98842.84;4956252;28;20031;-91
2022/06/11 03:50:54;;;;;;;9.30;8.18;;;;;;;18.40;82.13;98843.72;4924780;29;20552;-91
2022/06/11 03:53:20;;;;;;;9.52;7.82;;;;;;;18.40;80.98;98833.59;4924214;29;20030;-91
2022/06/11 03:55:45;;;;;;;8.75;7.65;;;;;;;18.33;81.94;98845.03;4924061;29;20027;-91
2022/06/11 03:58:11;;;;;;;12.38;8.32;;;;;;;18.32;81.75;98846.19;4956046;29;20026;-91
2022/06/11 04:03:21;;;;;;;9.65;8.65;;;;;;;18.23;82.18;98847.38;4943153;29;20038;-93
2022/06/11 04:05:47;;;;;;;10.18;8.27;;;;;;;18.20;82.90;98854.28;4923922;29;20118;-92
2022/06/11 04:08:13;;;;;;;11.35;9.68;;;;;;;18.19;83.02;98847.22;4924547;29;20034;-92
2022/06/11 04:10:39;;;;;;;14.70;9.50;;;;;;;18.17;83.02;98844.03;4924543;29;20401;-91
2022/06/11 04:13:05;;;;;;;11.07;8.95;;;;;;;18.23;82.17;98848.16;4924445;29;20027;-92
2022/06/11 04:15:30;;;;;;;10.20;8.10;;;;;;;18.33;81.66;98855.16;4924797;29;20034;-91
2022/06/11 04:17:56;;;;;;;12.35;8.95;;;;;;;18.38;81.81;98863.91;4924599;29;20027;-91
2022/06/11 04:20:21;;;;;;;12.52;9.40;;;;;;;18.34;82.40;98871.19;4923644;29;20042;-92
2022/06/11 04:22:47;;;;;;;9.45;8.38;;;;;;;18.33;81.95;98858.66;4924086;29;20162;-91
2022/06/11 04:25:15;;;;;;;11.45;8.63;;;;;;;18.34;81.55;98856.75;4955916;28;20031;-91
2022/06/11 04:27:41;;;;;;;19.40;15.60;;;;;;;18.46;81.57;98869.63;4924275;29;20547;-92
2022/06/11 04:30:07;;;;;;;11.48;9.00;;;;;;;18.50;80.99;98874.09;4923505;29;20023;-91
2022/06/11 04:32:33;;;;;;;13.57;9.00;;;;;;;18.50;80.58;98865.13;4939391;29;20035;-92
2022/06/11 04:34:58;;;;;;;9.70;8.00;;;;;;;18.57;80.82;98877.09;4939289;28;20081;-96
2022/06/11 04:37:25;;;;;;;12.13;8.20;;;;;;;18.56;80.99;98871.97;4955775;29;20031;-92
2022/06/11 04:39:52;;;;;;;11.90;8.75;;;;;;;18.57;81.18;98866.19;4956091;28;20039;-92
2022/06/11 04:42:18;;;;;;;14.70;8.93;;;;;;;18.45;81.72;98863.41;4939246;29;20031;-92
2022/06/11 04:44:43;;;;;;;11.20;9.52;;;;;;;18.34;82.61;98851.28;4955340;28;20213;-92
2022/06/11 04:47:09;;;;;;;8.82;7.90;;;;;;;18.32;81.38;98851.63;4923428;29;20039;-92
2022/06/11 04:49:35;;;;;;;9.70;7.63;;;;;;;18.35;81.67;98850.16;4955057;28;20027;-92
2022/06/11 04:52:01;;;;;;;12.40;7.28;;;;;;;18.49;81.17;98863.50;4922937;29;20086;-91
2022/06/11 04:54:26;;;;;;;11.48;8.25;;;;;;;18.34;81.32;98843.94;4922654;29;20030;-92
2022/06/11 04:56:52;;;;;;;10.18;8.57;;;;;;;18.35;81.78;98850.97;4938355;29;20390;-91
2022/06/11 04:59:17;;;;;;;12.68;9.07;;;;;;;18.30;82.43;98858.53;4954571;28;20019;-93
2022/06/11 05:01:43;;;;;;;10.32;8.77;;;;;;;18.39;82.51;98867.44;4923188;29;20019;-91
2022/06/11 05:04:09;;;;;;;17.52;10.15;;;;;;;18.23;82.09;98856.34;4954476;28;20197;-91
2022/06/11 05:06:39;;;;;;;10.95;9.38;;;;;;;18.38;82.33;98880.25;4922845;29;20034;-92
2022/06/11 05:09:05;;;;;;;9.90;8.40;;;;;;;18.42;81.09;98877.69;4955406;28;20031;-92
2022/06/11 05:11:30;;;;;;;9.48;7.85;;;;;;;18.45;80.57;98868.84;4923030;29;20122;-91
2022/06/11 05:13:56;;;;;;;8.93;7.80;;;;;;;18.57;80.41;98877.09;4924189;29;20566;-91
2022/06/11 05:16:22;;;;;;;12.43;8.55;;;;;;;18.56;81.23;98889.13;4923542;29;20091;-91
2022/06/11 05:18:48;;;;;;;10.68;9.27;;;;;;;18.50;81.43;98889.66;4971548;28;20050;-92
2022/06/11 05:21:13;;;;;;;13.23;9.55;;;;;;;18.50;82.03;98904.06;4954831;28;20019;-90
2022/06/11 05:23:39;;;;;;;10.77;9.40;;;;;;;18.49;82.58;98924.31;4922744;29;20027;-91
2022/06/11 05:26:05;;;;;;;11.35;9.43;;;;;;;18.54;82.49;98931.47;4955320;28;20090;-92
2022/06/11 05:28:31;;;;;;;10.95;8.60;;;;;;;18.62;81.88;98963.34;4923469;29;20031;-92
2022/06/11 05:30:56;;;;;;;13.35;7.70;;;;;;;18.56;82.37;98970.91;4922324;29;20054;-92
2022/06/11 05:33:22;;;;;;;8.15;7.07;;;;;;;18.49;81.97;98959.75;4939196;29;20031;-92
2022/06/11 05:35:48;;;;;;;8.15;6.70;;;;;;;18.57;82.19;98967.06;4954795;28;20134;-91
2022/06/11 05:38:16;;;;;;;8.35;6.70;;;;;;;18.51;81.93;98957.50;4954087;28;20404;-92
2022/06/11 05:40:44;;;;;;;8.75;6.28;;;;;;;18.54;81.37;98977.84;4922558;29;20023;-92
2022/06/11 05:43:10;;;;;;;7.53;5.45;;;;;;;18.71;80.35;98993.28;4955201;28;20023;-93
2022/06/11 05:45:40;;;;;;;6.72;5.38;;;;;;;18.81;80.40;99001.09;4954416;28;20034;-93
2022/06/11 05:48:07;;;;;;;6.57;5.45;;;;;;;18.76;80.21;98980.25;4923315;29;20473;-95
2022/06/11 05:50:35;;;;;;;8.43;6.03;;;;;;;18.77;79.98;98973.66;4954215;28;20114;-95
2022/06/11 05:53:01;;;;;;;7.82;6.32;;;;;;;18.78;79.75;98986.19;4956386;28;20389;-95
2022/06/11 05:55:28;;;;;;;7.32;5.90;;;;;;;18.88;79.30;98986.91;4956055;28;20059;-95
2022/06/11 05:57:54;;;;;;;8.02;6.47;;;;;;;18.74;79.50;98982.50;4923782;29;20474;-95
2022/06/11 06:00:20;;;;;;;8.25;6.40;;;;;;;18.82;79.66;98991.75;4924349;29;20047;-94
2022/06/11 06:02:45;;;;;;;6.35;5.65;;;;;;;18.74;79.53;98985.22;4925048;29;20023;-94
2022/06/11 06:05:13;;;;;;;7.10;6.10;;;;;;;18.77;79.15;99003.66;4955551;29;20027;-95
2022/06/11 06:07:38;;;;;;;9.50;6.97;;;;;;;18.77;79.42;98998.19;4955585;28;20501;-92
2022/06/11 06:10:04;;;;;;;15.88;6.30;;;;;;;18.79;78.47;99006.09;4956486;29;20097;-94
2022/06/11 06:12:32;;;;;;;5.70;5.20;;;;;;;18.69;78.76;98990.88;4924676;29;20035;-94
2022/06/11 06:15:09;;;;;;;5.88;5.30;;;;;;;18.75;78.54;98999.66;4925906;29;20500;-94
2022/06/11 06:17:38;;;;;;;8.52;5.20;;;;;;;18.66;77.83;98994.28;4923890;29;20046;-93
2022/06/11 06:20:05;;;;;;;5.90;5.30;;;;;;;18.82;77.23;99019.03;4927239;29;20067;-94
2022/06/11 06:22:30;;;;;;;9.23;5.50;;;;;;;18.82;77.23;99005.41;4925875;29;20031;-95
2022/06/11 06:24:56;;;;;;;15.82;9.40;;;;;;;18.85;77.73;99012.94;4922872;29;20462;-96
2022/06/11 06:27:22;;;;;;;10.52;6.05;;;;;;;18.86;78.21;99006.34;4922045;29;20082;-94
2022/06/11 06:29:47;;;;;;;7.30;5.18;;;;;;;18.77;78.57;99016.50;4937978;29;20035;-94
2022/06/11 06:32:13;;;;;;;8.20;6.30;;;;;;;18.74;78.41;99000.81;4922812;29;20027;-95
2022/06/11 06:34:38;;;;;;;10.25;7.18;;;;;;;18.91;78.66;99016.28;4924279;29;20544;-96
2022/06/11 06:37:04;;;;;;;8.52;6.38;;;;;;;18.86;77.95;99011.78;4922078;29;20032;-96
2022/06/11 06:39:30;;;;;;;7.22;5.50;;;;;;;18.78;76.99;98990.84;4921713;29;20417;-94
2022/06/11 06:41:56;;;;;;;11.13;7.53;;;;;;;18.72;78.60;99006.59;4954627;28;20023;-96
2022/06/11 06:44:21;;;;;;;8.85;7.22;;;;;;;18.62;79.15;98996.06;4954475;28;20110;-94
2022/06/11 06:46:47;;;;;;;7.72;6.40;;;;;;;18.63;78.57;99002.31;4922198;29;20031;-95
2022/06/11 06:49:12;;;;;;;11.95;7.28;;;;;;;18.67;79.05;99011.44;4953723;29;20023;-96
2022/06/11 06:51:38;;;;;;;14.13;7.30;;;;;;;18.57;78.83;98997.06;4922515;29;20024;-95
2022/06/11 06:54:03;;;;;;;10.38;8.90;;;;;;;18.57;79.33;99009.88;4953629;29;20034;-94
2022/06/11 06:56:33;;;;;;;9.18;6.28;;;;;;;18.63;77.07;98997.66;4922414;29;20031;-95
2022/06/11 06:59:02;;;;;;;18.05;9.57;;;;;;;18.75;78.13;99000.44;4924236;29;20027;-96
2022/06/11 07:01:28;;;;;;;9.45;6.25;;;;;;;18.79;77.12;98989.72;4958289;28;20047;-96
2022/06/11 07:03:54;;;;;;;6.43;5.22;;;;;;;18.76;75.23;98979.47;4925831;29;20122;-92
2022/06/11 07:06:19;;;;;;;8.88;5.72;;;;;;;18.87;76.14;98999.75;4925833;29;20045;-94
2022/06/11 07:08:45;;;;;;;6.28;5.35;;;;;;;18.81;76.54;99003.03;4925721;29;20026;-94
2022/06/11 07:11:10;;;;;;;7.22;5.70;;;;;;;18.71;77.76;98998.72;4925949;29;20039;-93
2022/06/11 07:13:36;;;;;;;6.28;5.68;;;;;;;18.74;77.49;99007.06;4958260;29;20050;-96
2022/06/11 07:16:01;;;;;;;9.05;5.85;;;;;;;18.78;78.24;99009.94;4926119;29;20030;-93
2022/06/11 07:18:33;;;;;;;10.98;7.10;;;;;;;18.76;78.59;99017.63;4957914;28;20063;-94
2022/06/11 07:20:59;;;;;;;7.95;5.95;;;;;;;18.60;78.21;99003.00;4958295;29;20031;-93
2022/06/11 07:23:42;;;;;;;10.10;6.30;;;;;;;18.44;78.85;99011.72;4957603;28;20035;-94
2022/06/11 07:26:11;;;;;;;9.90;7.72;;;;;;;18.50;80.22;99032.22;4926197;29;20031;-93
2022/06/11 07:28:40;;;;;;;8.35;6.95;;;;;;;18.41;80.03;99011.56;4926253;29;20614;-94
2022/06/11 07:31:05;;;;;;;10.23;7.72;;;;;;;18.50;80.43;99025.97;4926984;29;20408;-94
2022/06/11 07:33:31;;;;;;;12.77;8.65;;;;;;;18.45;80.83;99032.41;4957746;29;20034;-93
2022/06/11 07:36:06;;;;;;;12.70;9.05;;;;;;;18.52;81.52;99042.81;4926973;29;20054;-96
2022/06/11 07:38:31;;;;;;;11.75;8.55;;;;;;;18.43;81.15;99028.41;4956936;28;20058;-95
2022/06/11 07:40:57;;;;;;;9.38;7.38;;;;;;;18.43;80.86;99031.94;4925698;29;20027;-95
2022/06/11 07:43:23;;;;;;;11.98;9.45;;;;;;;18.62;80.75;99058.78;4928208;29;20034;-95
2022/06/11 07:45:49;;;;;;;15.30;13.63;;;;;;;18.49;80.37;99040.72;4959890;28;20023;-96
2022/06/11 07:48:15;;;;;;;35.00;28.52;;;;;;;18.40;80.15;99021.69;4927746;29;20031;-95
2022/06/11 07:50:43;;;;;;;11.90;7.55;;;;;;;18.55;80.59;99053.03;4926516;29;20536;-95
2022/06/11 07:53:09;;;;;;;9.10;6.90;;;;;;;18.46;80.19;99044.13;4924366;29;20031;-93
2022/06/11 07:55:34;;;;;;;9.13;6.78;;;;;;;18.38;80.56;99041.09;4940490;29;20409;-95
2022/06/11 07:58:00;;;;;;;10.00;7.20;;;;;;;18.18;81.66;99044.56;4955712;28;20034;-93
2022/06/11 08:00:35;;;;;;;8.07;6.75;;;;;;;18.43;80.97;99063.84;4939740;29;20122;-95
2022/06/11 08:03:00;;;;;;;10.23;7.10;;;;;;;18.37;81.39;99061.31;4924995;29;20031;-94
2022/06/11 08:05:26;;;;;;;12.02;7.63;;;;;;;18.47;81.36;99059.34;4955583;29;20030;-94
2022/06/11 08:07:52;;;;;;;11.48;7.57;;;;;;;18.54;80.09;99049.50;4939884;29;20027;-93
2022/06/11 08:10:19;;;;;;;10.70;8.05;;;;;;;18.51;80.68;99055.66;4938828;29;20031;-93
2022/06/11 08:12:44;;;;;;;9.77;7.65;;;;;;;18.51;80.83;99038.47;4924127;29;20031;-94
2022/06/11 08:15:11;;;;;;;9.13;7.45;;;;;;;18.49;80.69;99041.53;4939775;29;20031;-94
2022/06/11 08:17:37;;;;;;;11.65;7.82;;;;;;;18.53;80.86;99055.28;4924474;29;20059;-94
2022/06/11 08:20:03;;;;;;;12.32;8.27;;;;;;;18.40;81.30;99048.94;4924095;29;20026;-94
2022/06/11 08:22:29;;;;;;;14.73;9.55;;;;;;;18.44;80.97;99044.44;4955681;28;20038;-94
2022/06/11 08:24:54;;;;;;;12.50;7.68;;;;;;;18.33;81.24;99035.03;4955774;29;20023;-95
2022/06/11 08:27:20;;;;;;;16.48;10.05;;;;;;;18.24;80.87;99032.38;4925110;29;20050;-94
2022/06/11 08:29:45;;;;;;;21.77;11.13;;;;;;;18.43;80.79;99042.03;4924918;29;20501;-93
2022/06/11 08:32:11;;;;;;;10.63;7.72;;;;;;;18.57;80.44;99032.50;4924596;29;20031;-94
2022/06/11 08:34:41;;;;;;;15.10;8.50;;;;;;;18.52;80.95;99031.91;4924290;29;20039;-94
2022/06/11 08:37:06;;;;;;;10.50;8.30;;;;;;;18.57;80.88;99024.34;4924222;29;20035;-95
2022/06/11 08:39:32;;;;;;;11.95;8.32;;;;;;;18.65;79.90;99027.31;4955850;28;20134;-94
2022/06/11 08:41:59;;;;;;;11.02;8.07;;;;;;;18.85;79.51;99037.50;4955103;29;20031;-95
2022/06/11 08:44:24;;;;;;;19.95;10.40;;;;;;;18.72;80.65;99027.63;4924924;29;20054;-95
2022/06/11 08:46:50;;;;;;;8.52;6.65;;;;;;;18.73;79.40;99016.34;4943130;29;20504;-94
2022/06/11 08:49:21;;;;;;;9.18;7.68;;;;;;;18.69;79.52;99009.97;4940734;29;20031;-95
2022/06/11 08:52:11;;;;;;;9.05;6.93;;;;;;;19.01;78.82;99029.53;4926184;29;20127;-95
2022/06/11 08:54:39;;;;;;;7.35;6.65;;;;;;;19.02;78.60;99019.41;4955801;29;20050;-93
2022/06/11 08:57:10;;;;;;;8.80;7.10;;;;;;;19.14;78.54;99028.44;4924862;29;20035;-94
2022/06/11 08:59:45;;;;;;;9.02;6.78;;;;;;;19.18;77.77;99034.03;4955343;29;20127;-93
2022/06/11 09:02:35;;;;;;;9.45;6.53;;;;;;;19.26;78.82;99035.06;4956029;29;20524;-93
2022/06/11 09:05:32;;;;;;;16.00;8.25;;;;;;;19.36;78.67;99027.28;4955105;29;20027;-92
2022/06/11 09:08:12;;;;;;;10.68;8.27;;;;;;;19.28;78.59;99006.31;4955305;29;20031;-92
2022/06/11 09:11:07;;;;;;;8.52;6.55;;;;;;;19.48;78.25;99023.78;4955565;29;20042;-95
2022/06/11 09:13:54;;;;;;;9.68;7.57;;;;;;;19.62;77.99;99023.50;4979937;28;20039;-94
2022/06/11 09:16:19;;;;;;;8.85;6.88;;;;;;;19.71;76.99;99020.69;4956424;29;20034;-93
2022/06/11 09:18:51;;;;;;;6.07;5.25;;;;;;;19.86;76.33;99030.16;4956274;29;20412;-93
2022/06/11 09:21:35;;;;;;;9.75;5.85;;;;;;;19.94;77.04;99013.69;4954947;28;20031;-92
2022/06/11 09:24:25;;;;;;;7.30;6.47;;;;;;;20.04;76.70;99020.63;4955881;29;20143;-94
2022/06/11 09:27:04;;;;;;;8.90;5.80;;;;;;;20.08;76.62;99018.03;4955573;28;20023;-93
2022/06/11 09:29:50;;;;;;;6.15;5.40;;;;;;;20.34;75.53;99007.56;4922975;29;20023;-93
2022/06/11 09:32:29;;;;;;;6.68;5.15;;;;;;;20.48;75.25;99011.88;4940502;29;20059;-93
2022/06/11 09:35:14;;;;;;;7.20;5.65;;;;;;;20.66;74.00;99009.72;4924406;29;20044;-93
2022/06/11 09:38:03;;;;;;;5.80;5.20;;;;;;;20.82;73.19;99010.59;4922603;29;20039;-95
2022/06/11 09:40:34;;;;;;;8.32;5.47;;;;;;;20.97;73.16;99001.66;4959721;29;20091;-93
2022/06/11 09:43:27;;;;;;;6.70;5.70;;;;;;;21.16;73.17;99009.22;4953918;29;20063;-94
2022/06/11 09:46:22;;;;;;;8.70;6.10;;;;;;;21.17;72.55;98990.88;4954593;29;20039;-94
2022/06/11 09:49:04;;;;;;;16.35;14.43;;;;;;;21.15;73.53;98999.44;4984592;28;20047;-90
2022/06/11 09:51:39;;;;;;;9.25;7.40;;;;;;;21.08;73.80;98971.84;4939611;29;20023;-93
2022/06/11 09:54:25;;;;;;;6.20;5.60;;;;;;;21.32;72.59;98976.41;4954527;28;20034;-93
2022/06/11 09:57:27;;;;;;;6.13;5.63;;;;;;;21.50;72.12;98982.41;4940298;29;20489;-95
2022/06/11 09:59:59;;;;;;;7.32;6.63;;;;;;;21.42;71.63;98972.41;4954299;29;20027;-93
2022/06/11 10:02:52;;;;;;;7.00;6.40;;;;;;;21.55;70.82;98952.00;4940033;29;20050;-96
2022/06/11 10:06:03;;;;;;;8.02;6.85;;;;;;;21.63;70.70;98982.34;4927629;29;20027;-95
2022/06/11 10:08:35;;;;;;;8.43;5.97;;;;;;;21.39;69.80;98968.41;4984591;28;20042;-95
2022/06/11 10:11:26;;;;;;;8.43;6.05;;;;;;;21.45;70.18;98963.47;4950602;28;20091;-96
2022/06/11 10:14:28;;;;;;;7.97;6.03;;;;;;;21.61;68.31;98987.38;4949854;28;20051;-96
2022/06/11 10:17:12;;;;;;;;;;;;;;;21.80;69.90;98996.47;4972882;28;20023;-94
2022/06/11 10:20:00;;;;;;;8.65;6.40;;;;;;;21.56;69.79;98958.28;4954788;28;19910;-94
2022/06/11 10:22:33;;;;;;;6.00;5.40;;;;;;;21.83;69.51;98992.28;4939412;29;20097;-92
2022/06/11 10:25:26;;;;;;;6.65;5.35;;;;;;;21.85;69.06;98992.72;4938420;29;20035;-94
2022/06/11 10:27:55;;;;;;;5.75;4.70;;;;;;;21.75;68.57;98977.56;4954104;29;20038;-94
2022/06/11 10:30:36;;;;;;;8.23;6.05;;;;;;;21.97;69.53;98981.63;4938144;29;20054;-93
2022/06/11 10:33:03;;;;;;;6.45;4.85;;;;;;;21.88;67.59;98977.50;4923309;29;20556;-93
2022/06/11 10:35:32;;;;;;;7.00;4.47;;;;;;;21.90;66.84;98956.00;4957485;28;20134;-92
2022/06/11 10:38:22;;;;;;;5.38;3.67;;;;;;;22.12;66.62;98974.56;4941728;29;20147;-90
2022/06/11 10:40:47;;;;;;;6.85;4.30;;;;;;;22.13;66.02;98980.84;4941932;29;20023;-91
2022/06/11 10:43:32;;;;;;;4.70;4.20;;;;;;;22.07;67.18;98987.75;4925155;29;20125;-92
2022/06/11 10:45:57;;;;;;;6.03;4.60;;;;;;;22.01;66.03;98965.28;4958869;29;20062;-92
2022/06/11 10:48:23;;;;;;;9.15;4.10;;;;;;;22.05;65.57;98948.91;4941218;29;20102;-95
2022/06/11 10:50:48;;;;;;;5.65;4.30;;;;;;;22.44;65.85;98965.53;4925038;29;20035;-93
2022/06/11 10:53:25;;;;;;;9.73;4.07;;;;;;;22.64;64.13;98969.06;4957447;28;20027;-92
2022/06/11 10:56:01;;;;;;;6.97;4.72;;;;;;;22.54;64.90;98957.50;4957396;29;20031;-93
2022/06/11 10:58:39;;;;;;;4.00;3.60;;;;;;;22.41;64.30;98936.81;4925941;29;20027;-94
2022/06/11 11:01:24;;;;;;;4.75;3.53;;;;;;;22.56;63.00;98951.69;4926982;29;20571;-95
2022/06/11 11:04:07;;;;;;;3.40;3.05;;;;;;;22.82;64.71;98956.53;4957793;28;20031;-94
2022/06/11 11:06:34;;;;;;;4.20;3.45;;;;;;;22.78;63.99;98942.72;4926023;29;20145;-93
2022/06/11 11:09:07;;;;;;;5.80;3.40;;;;;;;22.88;62.89;98962.53;4958119;28;20408;-94
2022/06/11 11:11:40;;;;;;;3.50;3.20;;;;;;;22.90;62.83;98941.78;4926606;29;20027;-93
2022/06/11 11:14:18;;;;;;;5.60;3.10;;;;;;;22.92;62.77;98966.94;4957395;28;20118;-94
2022/06/11 11:16:48;;;;;;;70.75;49.10;;;;;;;22.75;63.96;98948.94;4958970;29;20117;-95
2022/06/11 11:19:15;;;;;;;6.03;4.40;;;;;;;22.99;62.37;98953.38;4927959;29;20035;-95
2022/06/11 11:22:03;;;;;;;7.38;3.53;;;;;;;22.89;62.16;98951.19;4942391;29;20025;-95
2022/06/11 11:24:30;;;;;;;3.70;2.83;;;;;;;22.97;62.46;98941.94;4986492;28;20046;-93
2022/06/11 11:26:56;;;;;;;4.93;2.70;;;;;;;22.88;61.84;98960.56;4941140;29;20037;-94
2022/06/11 11:29:27;;;;;;;4.05;3.65;;;;;;;22.94;61.67;98944.59;4956923;29;20087;-96
2022/06/11 11:32:02;;;;;;;5.15;3.00;;;;;;;22.72;62.58;98955.16;4925355;29;20044;-94
2022/06/11 11:34:41;;;;;;;6.80;2.53;;;;;;;22.43;63.00;98939.22;4959539;28;20398;-95
2022/06/11 11:37:13;;;;;;;2.75;2.42;;;;;;;22.56;63.14;98974.41;4941930;29;20122;-94
2022/06/11 11:39:39;;;;;;;;;;;;;;;22.32;63.55;98969.94;4957708;29;20051;-93
2022/06/11 11:42:07;;;;;;;4.15;2.47;;;;;;;22.23;63.72;98980.34;4972465;28;20389;-90
2022/06/11 11:44:41;;;;;;;2.80;2.40;;;;;;;22.04;63.92;98953.63;4957241;28;20127;-94
2022/06/11 11:47:23;;;;;;;2.80;2.40;;;;;;;21.99;65.17;98971.09;4925465;29;20023;-93
2022/06/11 11:49:55;;;;;;;3.88;2.63;;;;;;;21.94;65.10;98974.13;4941138;29;20026;-94
2022/06/11 11:52:21;;;;;;;;;;;;;;;21.79;65.40;98975.72;4925630;29;20035;-94